createdAt,value
2022-09-06T00:00:16.884Z,21.70
2022-09-06T00:02:44.240Z,21.90
2022-09-06T00:05:12.867Z,22.00
2022-09-06T00:07:40.676Z,22.00
2022-09-06T00:10:09.779Z,22.00
2022-09-06T00:12:37.746Z,21.80
2022-09-06T00:15:06.513Z,21.90
2022-09-06T00:17:34.361Z,21.90
2022-09-06T00:20:02.199Z,21.90
2022-09-06T00:22:28.936Z,21.90
2022-09-06T00:24:57.074Z,22.00
2022-09-06T00:27:24.067Z,22.00
2022-09-06T00:29:50.894Z,21.90
2022-09-06T00:32:17.680Z,21.80
2022-09-06T00:34:44.405Z,21.80
2022-09-06T00:37:11.250Z,21.70
2022-09-06T00:39:37.993Z,21.60
2022-09-06T00:42:10.801Z,21.50
2022-09-06T00:44:39.183Z,21.60
2022-09-06T00:47:09.462Z,21.50
2022-09-06T00:49:47.377Z,21.30
2022-09-06T00:52:19.533Z,21.30
2022-09-06T00:54:48.633Z,21.40
2022-09-06T00:57:17.908Z,21.60
2022-09-06T00:59:47.829Z,21.60
2022-09-06T01:02:15.235Z,21.60
2022-09-06T01:04:45.070Z,21.40
2022-09-06T01:07:59.923Z,21.20
2022-09-06T01:11:23.927Z,21.10
2022-09-06T01:14:33.692Z,21.20
2022-09-06T01:17:43.738Z,21.30
2022-09-06T01:20:36.946Z,21.30
2022-09-06T01:23:40.801Z,21.40
2022-09-06T01:26:38.819Z,21.40
2022-09-06T01:29:25.975Z,21.40
2022-09-06T01:32:09.062Z,21.40
2022-09-06T01:34:44.300Z,21.50
2022-09-06T01:37:17.314Z,21.50
2022-09-06T01:39:44.096Z,21.40
2022-09-06T01:42:23.857Z,21.40
2022-09-06T01:44:59.910Z,21.40
2022-09-06T01:48:26.189Z,21.40
2022-09-06T01:51:04.151Z,21.30
2022-09-06T01:54:13.796Z,21.40
2022-09-06T01:57:10.375Z,21.40
2022-09-06T02:00:19.022Z,21.40
2022-09-06T02:03:14.693Z,21.30
2022-09-06T02:05:53.543Z,21.20
2022-09-06T02:08:55.892Z,21.20
2022-09-06T02:11:29.198Z,21.00
2022-09-06T02:14:04.708Z,20.90
2022-09-06T02:16:38.642Z,20.90
2022-09-06T02:19:15.044Z,20.80
2022-09-06T02:21:45.594Z,20.70
2022-09-06T02:24:21.366Z,20.60
2022-09-06T02:26:53.645Z,20.60
2022-09-06T02:29:21.822Z,20.50
2022-09-06T02:32:02.257Z,20.50
2022-09-06T02:34:29.636Z,20.50
2022-09-06T02:36:56.669Z,20.60
2022-09-06T02:39:24.868Z,20.60
2022-09-06T02:41:52.149Z,20.60
2022-09-06T02:44:18.885Z,20.60
2022-09-06T02:46:45.610Z,20.60
2022-09-06T02:49:12.319Z,20.70
2022-09-06T02:51:39.745Z,20.70
2022-09-06T02:54:09.202Z,20.70
2022-09-06T02:56:36.641Z,20.80
2022-09-06T02:59:04.887Z,20.80
2022-09-06T03:01:33.430Z,20.80
2022-09-06T03:04:00.692Z,20.70
2022-09-06T03:06:27.762Z,20.80
2022-09-06T03:08:54.680Z,20.80
2022-09-06T03:11:21.583Z,20.70
2022-09-06T03:13:48.560Z,20.60
2022-09-06T03:16:15.483Z,20.60
2022-09-06T03:18:42.377Z,20.50
2022-09-06T03:21:09.841Z,20.60
2022-09-06T03:23:39.448Z,20.50
2022-09-06T03:26:10.409Z,20.50
2022-09-06T03:28:37.642Z,20.50
2022-09-06T03:31:05.002Z,20.50
2022-09-06T03:33:33.950Z,20.50
2022-09-06T03:36:03.118Z,20.50
2022-09-06T03:38:31.020Z,20.20
2022-09-06T03:40:58.095Z,20.20
2022-09-06T03:43:26.506Z,20.30
2022-09-06T03:45:57.396Z,20.30
2022-09-06T03:48:28.040Z,20.40
2022-09-06T03:50:58.195Z,20.40
2022-09-06T03:53:28.134Z,20.40
2022-09-06T03:55:57.627Z,20.40
2022-09-06T03:58:29.692Z,20.40
2022-09-06T04:01:11.287Z,20.50
2022-09-06T04:03:39.734Z,20.40
2022-09-06T04:06:07.327Z,20.20
2022-09-06T04:08:36.757Z,20.10
2022-09-06T04:11:04.227Z,20.10
2022-09-06T04:13:33.314Z,20.10
2022-09-06T04:16:00.672Z,20.10
2022-09-06T04:18:28.163Z,20.10
2022-09-06T04:20:58.091Z,20.20
2022-09-06T04:23:28.613Z,20.20
2022-09-06T04:25:58.867Z,20.00
2022-09-06T04:28:26.826Z,19.90
2022-09-06T04:31:04.636Z,19.80
2022-09-06T04:33:35.749Z,19.80
2022-09-06T04:36:07.514Z,19.80
2022-09-06T04:38:47.003Z,19.90
2022-09-06T04:41:21.020Z,20.00
2022-09-06T04:43:47.895Z,20.00
2022-09-06T04:46:24.976Z,19.90
2022-09-06T04:49:01.465Z,20.00
2022-09-06T04:51:28.516Z,20.00
2022-09-06T04:53:55.290Z,20.00
2022-09-06T04:56:27.023Z,20.00
2022-09-06T04:58:55.357Z,20.10
2022-09-06T05:01:22.257Z,20.10
2022-09-06T05:03:49.154Z,20.00
2022-09-06T05:06:24.770Z,19.90
2022-09-06T05:08:53.954Z,19.70
2022-09-06T05:11:20.759Z,19.50
2022-09-06T05:13:47.925Z,19.40
2022-09-06T05:16:14.929Z,19.40
2022-09-06T05:18:41.884Z,19.40
2022-09-06T05:21:08.739Z,19.30
2022-09-06T05:23:35.905Z,19.40
2022-09-06T05:26:03.927Z,19.40
2022-09-06T05:28:30.952Z,19.40
2022-09-06T05:31:13.044Z,19.40
2022-09-06T05:33:39.984Z,19.50
2022-09-06T05:36:07.524Z,19.50
2022-09-06T05:38:34.432Z,19.50
2022-09-06T05:41:01.241Z,19.50
2022-09-06T05:43:27.984Z,19.60
2022-09-06T05:45:54.797Z,19.80
2022-09-06T05:48:21.669Z,19.70
2022-09-06T05:50:48.442Z,19.80
2022-09-06T05:53:15.203Z,19.70
2022-09-06T05:55:45.928Z,19.70
2022-09-06T05:58:12.849Z,19.70
2022-09-06T06:00:39.953Z,19.90
2022-09-06T06:03:06.797Z,19.90
2022-09-06T06:05:33.508Z,19.80
2022-09-06T06:08:00.398Z,19.90
2022-09-06T06:10:27.224Z,19.90
2022-09-06T06:12:53.970Z,19.90
2022-09-06T06:15:20.676Z,19.90
2022-09-06T06:17:47.456Z,19.90
2022-09-06T06:20:14.348Z,19.90
2022-09-06T06:22:41.324Z,19.90
2022-09-06T06:25:08.391Z,19.90
2022-09-06T06:27:37.019Z,19.90
2022-09-06T06:30:04.827Z,19.90
2022-09-06T06:32:31.546Z,19.90
2022-09-06T06:34:58.613Z,19.90
2022-09-06T06:37:25.411Z,20.00
2022-09-06T06:39:52.274Z,20.00
2022-09-06T06:42:19.018Z,20.00
2022-09-06T06:44:45.838Z,20.10
2022-09-06T06:47:12.548Z,20.10
2022-09-06T06:49:39.261Z,20.10
2022-09-06T06:52:08.655Z,20.20
2022-09-06T06:54:37.307Z,20.10
2022-09-06T06:57:04.997Z,20.10
2022-09-06T06:59:32.852Z,20.20
2022-09-06T07:01:59.762Z,20.20
2022-09-06T07:04:26.712Z,20.20
2022-09-06T07:12:29.985Z,20.30
2022-09-06T07:14:56.710Z,20.30
2022-09-06T07:17:23.610Z,20.30
2022-09-06T07:22:38.746Z,20.40
2022-09-06T07:25:07.468Z,20.40
2022-09-06T07:27:50.310Z,20.40
2022-09-06T07:30:19.772Z,20.40
2022-09-06T07:32:46.855Z,20.30
2022-09-06T07:35:16.176Z,20.20
2022-09-06T07:37:43.016Z,20.30
2022-09-06T07:40:10.804Z,20.40
2022-09-06T07:42:37.735Z,20.40
2022-09-06T07:45:06.072Z,20.40
2022-09-06T07:53:13.034Z,20.50
2022-09-06T07:56:01.516Z,20.60
2022-09-06T07:58:30.268Z,20.60
2022-09-06T08:01:30.938Z,20.70
2022-09-06T08:04:03.859Z,20.70
2022-09-06T08:09:21.469Z,20.80
2022-09-06T08:11:52.871Z,21.20
2022-09-06T08:14:20.272Z,21.60
2022-09-06T08:16:47.034Z,21.90
2022-09-06T08:19:14.190Z,22.30
2022-09-06T08:21:41.142Z,22.60
2022-09-06T08:24:10.267Z,22.70
2022-09-06T08:26:44.681Z,23.10
2022-09-06T08:29:13.126Z,23.40
2022-09-06T08:31:44.484Z,23.60
2022-09-06T08:34:16.540Z,23.80
2022-09-06T08:36:45.305Z,24.10
2022-09-06T08:39:12.135Z,24.30
2022-09-06T08:42:03.638Z,24.20
2022-09-06T08:44:58.862Z,24.40
2022-09-06T08:47:26.215Z,24.60
2022-09-06T08:50:04.528Z,24.80
2022-09-06T08:53:18.271Z,24.90
2022-09-06T08:56:10.741Z,25.20
2022-09-06T08:59:13.556Z,25.10
2022-09-06T09:02:10.645Z,24.90
2022-09-06T09:05:00.539Z,25.00
2022-09-06T09:07:50.363Z,25.10
2022-09-06T09:10:27.237Z,25.20
2022-09-06T09:12:57.539Z,25.30
2022-09-06T09:15:25.775Z,25.30
2022-09-06T09:17:53.761Z,25.30
2022-09-06T09:20:21.831Z,25.60
2022-09-06T09:22:49.146Z,25.70
2022-09-06T09:25:24.742Z,25.60
2022-09-06T09:27:59.308Z,25.70
2022-09-06T09:30:47.739Z,25.70
2022-09-06T09:33:24.585Z,25.90
2022-09-06T09:35:53.529Z,25.80
2022-09-06T09:38:40.083Z,25.80
2022-09-06T09:41:08.625Z,25.90
2022-09-06T09:43:41.472Z,25.90
2022-09-06T09:46:39.025Z,25.90
2022-09-06T09:49:10.255Z,26.10
2022-09-06T09:51:42.514Z,25.80
2022-09-06T09:54:13.796Z,26.00
2022-09-06T09:56:53.916Z,26.10
2022-09-06T09:59:27.668Z,26.20
2022-09-06T10:02:01.559Z,26.20
2022-09-06T10:07:30.949Z,26.10
2022-09-06T10:10:11.998Z,26.10
2022-09-06T10:12:42.529Z,26.30
2022-09-06T10:15:40.914Z,26.10
2022-09-06T10:18:20.474Z,26.30
2022-09-06T10:20:53.271Z,26.40
2022-09-06T10:26:52.537Z,26.20
2022-09-06T10:30:01.760Z,26.30
2022-09-06T10:32:48.433Z,26.30
2022-09-06T10:35:30.323Z,26.40
2022-09-06T10:38:21.565Z,26.40
2022-09-06T10:41:25.969Z,26.40
2022-09-06T10:44:24.102Z,26.20
2022-09-06T10:47:10.683Z,26.00
2022-09-06T10:49:44.292Z,26.10
2022-09-06T10:52:23.866Z,26.30
2022-09-06T10:54:55.900Z,26.40
2022-09-06T11:00:27.117Z,26.80
2022-09-06T11:06:10.616Z,27.00
2022-09-06T11:08:57.841Z,27.00
2022-09-06T11:11:36.085Z,27.00
2022-09-06T11:14:13.457Z,26.60
2022-09-06T11:17:07.656Z,26.40
2022-09-06T11:20:27.502Z,26.60
2022-09-06T11:23:38.182Z,26.80
2022-09-06T11:26:31.751Z,26.60
2022-09-06T11:29:22.788Z,26.50
2022-09-06T11:32:34.228Z,26.40
2022-09-06T11:35:07.363Z,26.40
2022-09-06T11:37:43.710Z,26.70
2022-09-06T11:40:27.197Z,26.70
2022-09-06T11:42:55.057Z,26.90
2022-09-06T11:45:46.328Z,27.00
2022-09-06T11:48:26.501Z,27.10
2022-09-06T11:50:59.553Z,27.00
2022-09-06T11:53:55.163Z,26.80
2022-09-06T11:56:36.472Z,26.60
2022-09-06T11:59:18.864Z,26.60
2022-09-06T12:02:32.890Z,26.60
2022-09-06T12:05:00.960Z,26.60
2022-09-06T12:07:29.882Z,26.60
2022-09-06T12:09:57.556Z,26.50
2022-09-06T12:12:52.455Z,26.50
2022-09-06T12:15:30.541Z,26.50
2022-09-06T12:18:00.249Z,26.50
2022-09-06T12:20:49.009Z,26.40
2022-09-06T12:23:34.324Z,26.30
2022-09-06T12:26:05.786Z,26.50
2022-09-06T12:28:51.311Z,26.70
2022-09-06T12:31:39.727Z,26.90
2022-09-06T12:34:14.574Z,26.70
2022-09-06T12:36:57.457Z,26.60
2022-09-06T12:39:24.732Z,26.80
2022-09-06T12:42:03.446Z,26.90
2022-09-06T12:44:49.936Z,26.80
2022-09-06T12:47:28.966Z,26.60
2022-09-06T12:50:40.609Z,26.40
2022-09-06T12:53:24.869Z,26.40
2022-09-06T12:56:08.499Z,26.80
2022-09-06T12:58:37.302Z,26.70
2022-09-06T13:01:14.524Z,26.80
2022-09-06T13:03:56.965Z,26.90
2022-09-06T13:06:27.339Z,27.00
2022-09-06T13:08:59.504Z,27.00
2022-09-06T13:11:37.105Z,27.00
2022-09-06T13:14:17.353Z,27.10
2022-09-06T13:16:51.724Z,27.10
2022-09-06T13:19:33.742Z,27.00
2022-09-06T13:22:05.386Z,27.20
2022-09-06T13:24:47.662Z,27.30
2022-09-06T13:27:37.298Z,27.50
2022-09-06T13:30:10.540Z,27.60
2022-09-06T13:32:47.923Z,27.40
2022-09-06T13:35:29.306Z,27.50
2022-09-06T13:38:38.412Z,27.40
2022-09-06T13:41:27.640Z,27.40
2022-09-06T13:44:27.129Z,27.60
2022-09-06T13:46:55.240Z,27.70
2022-09-06T13:49:26.231Z,27.60
2022-09-06T13:52:00.245Z,27.70
2022-09-06T13:54:27.988Z,27.70
2022-09-06T13:56:56.474Z,27.80
2022-09-06T13:59:24.660Z,27.90
2022-09-06T14:02:04.783Z,27.90
2022-09-06T14:04:32.527Z,27.80
2022-09-06T14:06:59.812Z,27.70
2022-09-06T14:09:28.762Z,27.60
2022-09-06T14:11:56.397Z,27.60
2022-09-06T14:14:23.894Z,27.70
2022-09-06T14:16:51.342Z,27.70
2022-09-06T14:19:18.381Z,27.70
2022-09-06T14:21:45.132Z,27.60
2022-09-06T14:24:12.067Z,27.50
2022-09-06T14:26:39.380Z,27.60
2022-09-06T14:29:08.075Z,27.60
2022-09-06T14:31:34.933Z,27.90
2022-09-06T14:34:04.032Z,27.90
2022-09-06T14:36:32.723Z,27.80
2022-09-06T14:39:01.758Z,27.90
2022-09-06T14:41:29.339Z,27.90
2022-09-06T14:44:00.308Z,27.80
2022-09-06T14:46:29.599Z,27.80
2022-09-06T14:49:04.077Z,27.90
2022-09-06T14:51:31.540Z,27.80
2022-09-06T14:54:07.239Z,27.60
2022-09-06T14:56:34.305Z,27.80
2022-09-06T14:59:01.565Z,28.00
2022-09-06T15:01:35.734Z,27.90
2022-09-06T15:04:09.710Z,27.80
2022-09-06T15:06:40.767Z,27.50
2022-09-06T15:09:08.136Z,27.40
2022-09-06T15:11:49.286Z,27.40
2022-09-06T15:14:20.484Z,27.40
2022-09-06T15:17:13.564Z,27.40
2022-09-06T15:19:41.638Z,27.40
2022-09-06T15:22:08.599Z,27.40
2022-09-06T15:24:36.654Z,27.10
2022-09-06T15:27:04.275Z,26.90
2022-09-06T15:32:14.252Z,26.80
2022-09-06T15:34:43.963Z,26.80
2022-09-06T15:37:19.304Z,26.80
2022-09-06T15:39:49.339Z,26.80
2022-09-06T15:42:20.191Z,27.00
2022-09-06T15:44:46.950Z,27.10
2022-09-06T15:47:13.856Z,26.90
2022-09-06T15:49:41.171Z,27.10
2022-09-06T15:52:09.375Z,27.30
2022-09-06T15:55:05.440Z,27.30
2022-09-06T15:57:33.687Z,27.30
2022-09-06T16:00:00.822Z,27.20
2022-09-06T16:02:30.494Z,27.00
2022-09-06T16:04:57.786Z,27.00
2022-09-06T16:07:25.539Z,26.90
2022-09-06T16:09:52.561Z,26.60
2022-09-06T16:12:19.376Z,26.40
2022-09-06T16:14:46.165Z,26.40
2022-09-06T16:17:13.039Z,26.20
2022-09-06T16:19:42.232Z,26.10
2022-09-06T16:22:28.021Z,26.10
2022-09-06T16:24:58.590Z,26.10
2022-09-06T16:27:33.715Z,26.20
2022-09-06T16:30:02.564Z,26.10
2022-09-06T16:32:32.048Z,26.10
2022-09-06T16:35:14.839Z,25.90
2022-09-06T16:37:41.772Z,25.90
2022-09-06T16:40:09.787Z,26.00
2022-09-06T16:42:38.960Z,25.90
2022-09-06T16:45:06.125Z,25.90
2022-09-06T16:47:32.856Z,25.90
2022-09-06T16:49:59.801Z,25.80
2022-09-06T16:52:26.563Z,25.90
2022-09-06T16:54:53.286Z,25.90
2022-09-06T16:57:20.124Z,25.70
2022-09-06T16:59:49.201Z,25.70
2022-09-06T17:02:22.053Z,25.70
2022-09-06T17:04:49.653Z,25.70
2022-09-06T17:07:17.237Z,25.80
2022-09-06T17:09:44.050Z,25.80
2022-09-06T17:12:10.805Z,25.80
2022-09-06T17:14:37.624Z,25.80
2022-09-06T17:17:04.914Z,25.80
2022-09-06T17:19:41.725Z,25.70
2022-09-06T17:22:11.273Z,25.70
2022-09-06T17:24:38.921Z,25.70
2022-09-06T17:27:06.845Z,25.70
2022-09-06T17:29:33.732Z,25.70
2022-09-06T17:32:00.751Z,25.70
2022-09-06T17:34:27.588Z,25.70
2022-09-06T17:36:54.341Z,25.60
2022-09-06T17:39:23.382Z,25.60
2022-09-06T17:41:53.265Z,25.60
2022-09-06T17:44:25.137Z,25.60
2022-09-06T17:47:11.434Z,25.70
2022-09-06T17:49:40.168Z,25.80
2022-09-06T17:52:07.038Z,25.80
2022-09-06T17:54:33.844Z,25.80
2022-09-06T17:57:03.883Z,25.80
2022-09-06T17:59:35.173Z,25.90
2022-09-06T18:02:02.377Z,25.90
2022-09-06T18:04:29.164Z,25.90
2022-09-06T18:06:55.894Z,26.00
2022-09-06T18:09:22.701Z,26.10
2022-09-06T18:11:51.904Z,26.00
2022-09-06T18:14:23.102Z,25.80
2022-09-06T18:16:55.391Z,25.70
2022-09-06T18:19:23.094Z,25.70
2022-09-06T18:21:50.306Z,25.80
2022-09-06T18:24:17.220Z,25.70
2022-09-06T18:26:45.226Z,25.60
2022-09-06T18:29:14.819Z,25.60
2022-09-06T18:31:42.751Z,25.60
2022-09-06T18:34:10.062Z,25.60
2022-09-06T18:36:39.658Z,25.40
2022-09-06T18:39:06.665Z,25.40
2022-09-06T18:41:53.840Z,25.50
2022-09-06T18:44:22.290Z,25.50
2022-09-06T18:46:49.668Z,25.50
2022-09-06T18:49:19.843Z,25.40
2022-09-06T18:51:46.745Z,25.40
2022-09-06T18:54:14.601Z,25.40
2022-09-06T18:56:48.641Z,25.30
2022-09-06T18:59:16.479Z,25.10
2022-09-06T19:01:43.810Z,25.20
2022-09-06T19:04:12.909Z,25.20
2022-09-06T19:06:42.983Z,25.10
2022-09-06T19:09:16.501Z,25.00
2022-09-06T19:11:45.592Z,25.00
2022-09-06T19:14:13.746Z,25.00
2022-09-06T19:16:41.840Z,25.00
2022-09-06T19:19:09.847Z,25.00
2022-09-06T19:21:41.670Z,24.90
2022-09-06T19:24:11.519Z,24.90
2022-09-06T19:26:41.986Z,24.70
2022-09-06T19:29:17.566Z,24.70
2022-09-06T19:31:46.896Z,24.80
2022-09-06T19:34:15.380Z,24.80
2022-09-06T19:36:44.955Z,24.70
2022-09-06T19:39:16.196Z,24.60
2022-09-06T19:41:47.592Z,24.60
2022-09-06T19:44:20.585Z,24.50
2022-09-06T19:46:47.808Z,24.40
2022-09-06T19:49:19.696Z,24.40
2022-09-06T19:51:49.133Z,24.40
2022-09-06T19:54:16.815Z,24.40
2022-09-06T19:56:44.676Z,24.30
2022-09-06T19:59:13.470Z,24.30
2022-09-06T20:01:42.646Z,24.20
2022-09-06T20:04:12.204Z,24.20
2022-09-06T20:06:39.047Z,24.10
2022-09-06T20:09:09.986Z,24.00
2022-09-06T20:11:38.925Z,23.90
2022-09-06T20:14:06.930Z,24.00
2022-09-06T20:16:36.041Z,24.10
2022-09-06T20:19:05.085Z,24.00
2022-09-06T20:21:34.388Z,23.90
2022-09-06T20:24:01.336Z,23.80
2022-09-06T20:26:30.279Z,23.90
2022-09-06T20:29:02.330Z,23.90
2022-09-06T20:31:31.783Z,23.90
2022-09-06T20:34:01.650Z,23.80
2022-09-06T20:36:28.796Z,23.90
2022-09-06T20:38:55.692Z,23.80
2022-09-06T20:41:25.732Z,23.80
2022-09-06T20:43:58.228Z,23.80
2022-09-06T20:46:31.423Z,23.80
2022-09-06T20:49:01.792Z,23.70
2022-09-06T20:51:28.599Z,23.70
2022-09-06T20:53:59.919Z,23.60
2022-09-06T20:56:36.902Z,23.50
2022-09-06T20:59:08.504Z,23.50
2022-09-06T21:01:40.137Z,23.40
2022-09-06T21:04:09.537Z,23.30
2022-09-06T21:06:39.049Z,23.00
2022-09-06T21:09:28.833Z,22.80
2022-09-06T21:11:56.815Z,22.50
2022-09-06T21:14:23.587Z,22.60
2022-09-06T21:16:50.405Z,22.70
2022-09-06T21:19:17.434Z,22.60
2022-09-06T21:21:44.574Z,22.60
2022-09-06T21:24:13.431Z,22.60
2022-09-06T21:26:43.213Z,22.50
2022-09-06T21:29:10.357Z,22.30
2022-09-06T21:31:38.213Z,22.40
2022-09-06T21:34:16.262Z,22.50
2022-09-06T21:36:44.583Z,22.40
2022-09-06T21:39:12.892Z,22.30
2022-09-06T21:41:42.724Z,22.20
2022-09-06T21:44:12.353Z,22.30
2022-09-06T21:46:40.618Z,22.30
2022-09-06T21:49:13.176Z,22.20
2022-09-06T21:51:41.415Z,22.10
2022-09-06T21:54:08.873Z,22.00
2022-09-06T21:56:40.303Z,21.80
2022-09-06T21:59:08.177Z,21.50
2022-09-06T22:01:38.685Z,21.40
2022-09-06T22:04:08.347Z,21.00
2022-09-06T22:06:37.743Z,20.90
2022-09-06T22:09:10.907Z,20.80
2022-09-06T22:11:41.584Z,20.70
2022-09-06T22:14:12.549Z,20.60
2022-09-06T22:16:43.009Z,20.50
2022-09-06T22:19:11.151Z,20.40
2022-09-06T22:21:38.907Z,20.40
2022-09-06T22:24:09.957Z,20.30
2022-09-06T22:26:39.878Z,20.10
2022-09-06T22:29:10.637Z,20.00
2022-09-06T22:31:38.239Z,19.00
2022-09-06T22:34:08.912Z,18.50
2022-09-06T22:36:35.725Z,18.00
2022-09-06T22:39:02.946Z,18.00
2022-09-06T22:41:34.095Z,17.80
2022-09-06T22:44:03.207Z,17.70
2022-09-06T22:46:30.957Z,17.50
2022-09-06T22:48:58.532Z,17.50
2022-09-06T22:51:25.344Z,17.40
2022-09-06T22:53:52.207Z,17.40
2022-09-06T22:56:19.099Z,17.50
2022-09-06T22:58:45.843Z,17.50
2022-09-06T23:01:15.401Z,17.60
2022-09-06T23:03:48.036Z,17.60
2022-09-06T23:06:14.976Z,17.70
2022-09-06T23:08:42.292Z,17.60
2022-09-06T23:11:16.201Z,17.50
2022-09-06T23:13:43.861Z,17.60
2022-09-06T23:16:15.073Z,17.50
2022-09-06T23:18:42.421Z,17.50
2022-09-06T23:21:15.744Z,17.60
2022-09-06T23:23:43.249Z,17.60
2022-09-06T23:26:22.746Z,17.60
2022-09-06T23:28:52.508Z,17.60
2022-09-06T23:31:19.543Z,17.50
2022-09-06T23:33:46.300Z,17.60
2022-09-06T23:36:14.798Z,17.60
2022-09-06T23:38:43.432Z,17.70
2022-09-06T23:41:11.313Z,17.70
2022-09-06T23:43:40.571Z,17.90
2022-09-06T23:46:10.956Z,17.80
2022-09-06T23:48:38.351Z,17.70
2022-09-06T23:51:05.822Z,17.70
2022-09-06T23:53:33.599Z,17.50
2022-09-06T23:56:01.594Z,17.60
2022-09-06T23:58:28.448Z,17.50
